Archival Weather

Habib Bourguiba Intl

Habib Bourguiba Intl, Tunisia (DTMB)

Report from: Sunday, October 1, 2023 10:30 AM CET
Current time: Saturday, March 2, 2024 10:05 AM CET

Current weather – Weather history – Daily summaries
Weather forecast

Temperature26.0°C (78.8°F)
Dew point18.0°C (64.4°F)
Winds 8 kts (4.1 m/s, 9.2 mph) Vrb
Winds variableWinds variable from Northwest (310°) to North-Northeast (20°)
Visibility6.2 mi. (10 km)
Clouds Few clouds 3,000 ft. (914 m)
Altimeter30.21 in.Hg (1023 mB)
Relative humidity61 %
Density altitude1,226 ft. (374 m)
Flight conditions Visual Meteorological Conditions
Raw dataDTMB 010930Z 35008KT 310V020 9999 FEW030 26/18 Q1023
An error has occurred. This application may no longer respond until reloaded. Reload 🗙